Time;durP1;ratioP1;P1;durP2;ratioP2;P2;SDS_P1;SDS_P2;PMS_P1;PMS_P2;Temp;Humidity;BMP_temperature;BMP_pressure;BME280_temperature;BME280_humidity;BME280_pressure;Samples;Min_cycle;Max_cycle;Signal;HPM_P1;HPM_P2
2023/02/11 00:04:35;;;;;;;;;;;;;;;13.06;29.95;97475.38;10433099;28;1903;-50
2023/02/11 00:09:36;;;;;;;;;;;;;;;13.05;29.93;97475.56;10395857;28;2085;-53
2023/02/11 00:14:36;;;;;;;;;;;;;;;13.04;29.96;97476.56;10421134;28;1942;-51
2023/02/11 00:19:36;;;;;;;;;;;;;;;13.04;29.98;97485.16;10399047;28;1970;-51
2023/02/11 00:24:37;;;;;;;;;;;;;;;13.04;29.81;97479.97;10426214;28;2058;-50
2023/02/11 00:29:37;;;;;;;;;;;;;;;13.03;29.99;97478.34;10412115;28;2027;-49
2023/02/11 00:34:37;;;;;;;;;;;;;;;13.02;29.95;97471.50;10396090;28;1922;-54
2023/02/11 00:39:38;;;;;;;;;;;;;;;13.02;30.07;97474.09;10403624;28;2024;-51
2023/02/11 00:44:38;;;;;;;;;;;;;;;13.02;29.95;97465.50;10422244;28;2048;-53
2023/02/11 00:49:39;;;;;;;;;;;;;;;13.01;29.78;97449.09;10431465;28;1978;-52
2023/02/11 00:54:39;;;;;;;;;;;;;;;13.00;29.92;97452.66;10429596;28;2084;-49
2023/02/11 00:59:40;;;;;;;;;;;;;;;13.00;29.96;97446.66;10418326;28;2203;-52
2023/02/11 01:04:40;;;;;;;;;;;;;;;13.00;29.87;97449.28;10417729;28;2030;-52
2023/02/11 01:09:40;;;;;;;;;;;;;;;13.00;29.75;97451.88;10421593;28;2018;-50
2023/02/11 01:14:41;;;;;;;;;;;;;;;12.98;30.00;97441.63;10427053;28;1887;-53
2023/02/11 01:19:41;;;;;;;;;;;;;;;12.98;30.00;97454.63;10426896;28;2038;-52
2023/02/11 01:24:41;;;;;;;;;;;;;;;12.98;29.97;97443.44;10423635;28;1985;-54
2023/02/11 01:29:42;;;;;;;;;;;;;;;12.96;30.02;97441.00;10422302;28;2077;-54
2023/02/11 01:34:42;;;;;;;;;;;;;;;12.97;30.04;97437.44;10416002;28;1974;-52
2023/02/11 01:39:42;;;;;;;;;;;;;;;12.97;29.72;97441.81;10426440;28;1953;-53
2023/02/11 01:44:42;;;;;;;;;;;;;;;12.96;29.89;97441.00;10421154;28;1945;-53
2023/02/11 01:49:43;;;;;;;;;;;;;;;12.96;30.02;97446.22;10416640;28;1994;-51
2023/02/11 02:00:24;;;;;;;;;;;;;;;12.95;30.01;97441.19;10426076;28;1962;-53
2023/02/11 02:05:33;;;;;;;;;;;;;;;12.94;29.91;97442.97;10399907;28;2118;-53
2023/02/11 02:10:34;;;;;;;;;;;;;;;12.94;29.87;97431.78;10432373;28;1953;-52
2023/02/11 02:15:37;;;;;;;;;;;;;;;12.93;29.81;97430.97;10424307;28;1934;-52
2023/02/11 02:21:03;;;;;;;;;;;;;;;12.92;29.88;97424.16;10428784;28;2088;-53
2023/02/11 02:26:22;;;;;;;;;;;;;;;12.92;29.98;97418.94;10400221;28;2025;-53
2023/02/11 02:31:41;;;;;;;;;;;;;;;12.93;29.95;97398.94;10404084;28;1983;-52
2023/02/11 02:36:42;;;;;;;;;;;;;;;12.93;29.80;97393.72;10417504;28;1925;-51
2023/02/11 02:41:43;;;;;;;;;;;;;;;12.92;29.97;97386.94;10400464;28;1982;-52
2023/02/11 02:46:43;;;;;;;;;;;;;;;12.91;29.83;97388.72;10386535;28;1954;-53
2023/02/11 02:52:03;;;;;;;;;;;;;;;12.91;29.71;97386.13;10421578;28;1949;-52
2023/02/11 02:57:12;;;;;;;;;;;;;;;12.90;30.03;97370.69;10425643;28;2004;-53
2023/02/11 03:02:19;;;;;;;;;;;;;;;12.91;29.96;97369.69;10417683;28;1920;-50
2023/02/11 03:07:19;;;;;;;;;;;;;;;12.90;29.79;97368.88;10420593;28;2108;-51
2023/02/11 03:12:19;;;;;;;;;;;;;;;12.89;29.82;97356.88;10416511;28;2020;-50
2023/02/11 03:17:19;;;;;;;;;;;;;;;12.86;29.88;97352.03;10410485;28;2069;-51
2023/02/11 03:22:21;;;;;;;;;;;;;;;12.88;29.98;97328.44;10427837;28;2025;-49
2023/02/11 03:27:25;;;;;;;;;;;;;;;12.88;29.92;97339.63;10395347;28;2101;-51
2023/02/11 03:32:26;;;;;;;;;;;;;;;12.87;29.88;97338.03;10420578;28;2112;-49
2023/02/11 03:37:28;;;;;;;;;;;;;;;12.87;29.89;97343.22;10431221;28;2093;-51
2023/02/11 03:42:30;;;;;;;;;;;;;;;12.87;29.92;97353.66;10433933;28;1951;-50
2023/02/11 03:47:31;;;;;;;;;;;;;;;12.86;30.00;97340.78;10412950;28;2027;-51
2023/02/11 03:52:31;;;;;;;;;;;;;;;12.86;29.76;97352.03;10415028;28;1899;-51
2023/02/11 03:57:33;;;;;;;;;;;;;;;12.85;29.93;97354.81;10407859;28;2029;-53
2023/02/11 04:02:34;;;;;;;;;;;;;;;12.85;30.06;97345.22;10409102;28;2021;-51
2023/02/11 04:07:34;;;;;;;;;;;;;;;12.85;29.99;97349.59;10414370;28;1923;-51
2023/02/11 04:12:34;;;;;;;;;;;;;;;12.83;29.90;97352.41;10411758;28;1915;-51
2023/02/11 04:17:34;;;;;;;;;;;;;;;12.84;30.03;97363.59;10414423;28;2090;-50
2023/02/11 04:22:35;;;;;;;;;;;;;;;12.83;29.96;97370.63;10407603;28;2046;-50
2023/02/11 04:27:35;;;;;;;;;;;;;;;12.83;29.85;97368.03;10415246;28;1962;-48
2023/02/11 04:32:35;;;;;;;;;;;;;;;12.83;30.07;97368.03;10418481;28;2030;-52
2023/02/11 04:37:36;;;;;;;;;;;;;;;12.83;29.96;97373.22;10413393;28;2050;-52
2023/02/11 04:42:36;;;;;;;;;;;;;;;12.82;29.97;97389.81;10396245;28;2054;-52
2023/02/11 04:47:36;;;;;;;;;;;;;;;12.80;29.98;97394.41;10408620;28;1986;-50
2023/02/11 04:52:37;;;;;;;;;;;;;;;12.80;29.77;97399.59;10419607;28;1991;-52
2023/02/11 04:57:37;;;;;;;;;;;;;;;12.79;30.01;97403.22;10413091;28;1975;-54
2023/02/11 05:02:37;;;;;;;;;;;;;;;12.77;30.06;97406.97;10423999;28;2023;-51
2023/02/11 05:07:37;;;;;;;;;;;;;;;12.77;29.90;97396.56;10406475;28;2190;-50
2023/02/11 05:12:38;;;;;;;;;;;;;;;12.76;29.97;97398.34;10409690;28;1976;-53
2023/02/11 05:17:38;;;;;;;;;;;;;;;12.76;30.00;97398.34;10427097;28;1996;-51
2023/02/11 05:22:38;;;;;;;;;;;;;;;12.76;30.03;97392.34;10412215;28;2164;-51
2023/02/11 05:27:38;;;;;;;;;;;;;;;12.75;29.91;97388.97;10410662;28;1969;-48
2023/02/11 05:32:39;;;;;;;;;;;;;;;12.75;29.94;97380.34;10427336;28;2014;-51
2023/02/11 05:37:39;;;;;;;;;;;;;;;12.74;30.01;97379.53;10426794;28;1981;-51
2023/02/11 05:42:39;;;;;;;;;;;;;;;12.74;29.98;97369.13;10403351;28;2077;-50
2023/02/11 05:47:40;;;;;;;;;;;;;;;12.74;29.80;97369.13;10419757;28;1930;-50
2023/02/11 05:52:40;;;;;;;;;;;;;;;12.74;29.83;97371.72;10432940;28;2113;-52
2023/02/11 05:57:40;;;;;;;;;;;;;;;12.74;29.76;97360.50;10408984;28;1989;-50
2023/02/11 06:02:40;;;;;;;;;;;;;;;12.73;29.79;97351.09;10423456;28;2045;-52
2023/02/11 06:07:41;;;;;;;;;;;;;;;12.73;29.92;97345.91;10414564;28;2116;-49
2023/02/11 06:12:41;;;;;;;;;;;;;;;12.71;29.96;97337.47;10423540;28;1970;-51
2023/02/11 06:17:41;;;;;;;;;;;;;;;12.73;29.96;97362.31;10415389;28;2046;-53
2023/02/11 06:22:41;;;;;;;;;;;;;;;12.72;29.69;97371.09;10412624;28;1967;-54
2023/02/11 06:27:42;;;;;;;;;;;;;;;12.70;29.81;97373.09;10424198;28;1940;-54
2023/02/11 06:32:42;;;;;;;;;;;;;;;12.70;29.74;97367.88;10418525;28;1962;-50
2023/02/11 06:37:42;;;;;;;;;;;;;;;12.67;29.85;97368.25;10415108;28;1973;-54
2023/02/11 06:42:43;;;;;;;;;;;;;;;12.69;29.96;97366.28;10426480;28;1977;-52
2023/02/11 06:47:43;;;;;;;;;;;;;;;12.69;29.72;97355.88;10420003;28;1981;-52
2023/02/11 06:52:43;;;;;;;;;;;;;;;12.68;29.82;97359.44;10422569;28;2112;-52
2023/02/11 06:57:43;;;;;;;;;;;;;;;12.67;29.85;97373.47;10442347;28;1955;-49
2023/02/11 07:02:44;;;;;;;;;;;;;;;12.69;29.86;97381.88;10432144;28;1386;-52
2023/02/11 07:07:44;;;;;;;;;;;;;;;12.68;29.93;97387.25;10427932;28;1902;-50
2023/02/11 07:12:44;;;;;;;;;;;;;;;12.68;29.87;97382.06;10412930;28;1938;-52
2023/02/11 07:17:44;;;;;;;;;;;;;;;12.67;29.98;97368.25;10422096;28;2108;-53
2023/02/11 07:22:45;;;;;;;;;;;;;;;12.67;30.00;97368.25;10411997;28;2188;-48
2023/02/11 07:27:45;;;;;;;;;;;;;;;12.65;29.87;97349.41;10419881;28;2164;-54
2023/02/11 07:32:45;;;;;;;;;;;;;;;12.66;29.97;97345.81;10411038;28;1965;-49
2023/02/11 07:37:46;;;;;;;;;;;;;;;12.66;29.85;97371.84;10430980;28;2034;-55
2023/02/11 07:42:46;;;;;;;;;;;;;;;12.64;29.99;97368.63;10422461;28;1997;-49
2023/02/11 07:47:46;;;;;;;;;;;;;;;12.65;29.80;97362.41;10433184;28;1490;-49
2023/02/11 07:52:46;;;;;;;;;;;;;;;12.65;29.91;97359.81;10434992;28;1361;-56
2023/02/11 07:57:47;;;;;;;;;;;;;;;12.65;29.95;97361.63;10419904;28;2002;-50
2023/02/11 08:02:47;;;;;;;;;;;;;;;12.65;29.96;97346.00;10430918;28;1986;-51
2023/02/11 08:07:49;;;;;;;;;;;;;;;12.63;30.05;97329.78;10422903;28;1987;-52
2023/02/11 08:12:50;;;;;;;;;;;;;;;12.65;30.02;97340.81;10412042;28;1962;-52
2023/02/11 08:17:50;;;;;;;;;;;;;;;12.62;30.03;97339.38;10412909;28;2015;-50
2023/02/11 08:22:50;;;;;;;;;;;;;;;12.64;29.87;97326.19;10419880;28;1918;-53
2023/02/11 08:27:50;;;;;;;;;;;;;;;12.63;29.86;97330.56;10414943;28;1943;-53
2023/02/11 08:32:51;;;;;;;;;;;;;;;12.64;29.83;97339.19;10412304;28;2053;-54
2023/02/11 08:37:51;;;;;;;;;;;;;;;12.63;29.93;97335.78;10402575;28;1983;-50
2023/02/11 08:42:52;;;;;;;;;;;;;;;12.63;29.87;97367.00;10415799;28;1934;-52
2023/02/11 08:47:52;;;;;;;;;;;;;;;12.63;30.04;97359.19;10412321;28;1943;-50
2023/02/11 08:52:52;;;;;;;;;;;;;;;12.62;29.95;97360.19;10405653;28;1899;-50
2023/02/11 08:57:53;;;;;;;;;;;;;;;12.61;30.20;97362.97;10410161;28;1995;-52
2023/02/11 09:02:54;;;;;;;;;;;;;;;12.62;30.10;97357.59;10411989;28;1996;-53
2023/02/11 09:07:54;;;;;;;;;;;;;;;12.63;30.03;97355.81;10426893;28;1977;-51
2023/02/11 09:12:54;;;;;;;;;;;;;;;12.60;30.15;97346.56;10422464;28;2021;-48
2023/02/11 09:17:55;;;;;;;;;;;;;;;12.62;30.01;97348.97;10412613;28;2007;-49
2023/02/11 09:22:55;;;;;;;;;;;;;;;12.61;30.30;97347.38;10421769;28;1990;-49
2023/02/11 09:27:56;;;;;;;;;;;;;;;12.59;30.22;97324.13;10423374;28;2076;-51
2023/02/11 09:32:56;;;;;;;;;;;;;;;12.62;30.14;97328.16;10428751;28;1980;-52
2023/02/11 09:37:57;;;;;;;;;;;;;;;12.61;30.04;97329.16;10418841;28;1919;-53
2023/02/11 09:43:10;;;;;;;;;;;;;;;12.58;30.20;97335.53;10427780;28;1962;-50
2023/02/11 09:48:15;;;;;;;;;;;;;;;12.60;30.23;97346.56;10422894;28;1914;-51
2023/02/11 09:53:21;;;;;;;;;;;;;;;12.60;30.26;97345.75;10412574;28;2073;-54
2023/02/11 09:58:28;;;;;;;;;;;;;;;12.61;30.12;97334.38;10441179;28;2274;-49
2023/02/11 10:03:58;;;;;;;;;;;;;;;12.62;30.26;97317.75;10428282;28;1982;-52
2023/02/11 10:08:58;;;;;;;;;;;;;;;12.62;30.26;97309.94;10408172;28;1908;-50
2023/02/11 10:14:17;;;;;;;;;;;;;;;12.63;30.48;97308.97;10425141;28;1984;-51
2023/02/11 10:19:17;;;;;;;;;;;;;;;12.62;30.50;97310.75;10424004;28;2013;-52
2023/02/11 10:24:18;;;;;;;;;;;;;;;12.62;30.26;97323.78;10409142;28;2001;-52
2023/02/11 10:29:30;;;;;;;;;;;;;;;12.62;30.35;97325.56;10405593;28;1934;-49
2023/02/11 10:34:30;;;;;;;;;;;;;;;12.63;30.54;97329.78;10425050;28;2000;-52
2023/02/11 10:39:31;;;;;;;;;;;;;;;12.61;30.43;97303.94;10428745;28;1981;-52
2023/02/11 10:44:32;;;;;;;;;;;;;;;12.62;30.52;97317.75;10422431;28;1993;-51
2023/02/11 10:49:34;;;;;;;;;;;;;;;12.62;30.61;97310.75;10405259;28;1995;-53
2023/02/11 10:54:34;;;;;;;;;;;;;;;12.63;30.60;97309.75;10439010;28;2047;-55
2023/02/11 10:59:39;;;;;;;;;;;;;;;12.63;30.66;97294.16;10416161;28;1973;-54
2023/02/11 11:04:39;;;;;;;;;;;;;;;12.64;30.77;97289.75;10410555;28;1961;-52
2023/02/11 11:09:47;;;;;;;;;;;;;;;12.65;30.68;97288.78;10436366;28;1942;-55
2023/02/11 11:14:52;;;;;;;;;;;;;;;12.63;30.84;97288.94;10417084;28;2002;-51
2023/02/11 11:19:53;;;;;;;;;;;;;;;12.63;30.76;97288.16;10412496;28;1980;-53
2023/02/11 11:24:54;;;;;;;;;;;;;;;12.64;30.73;97274.16;10474314;28;1973;-50
2023/02/11 11:29:54;;;;;;;;;;;;;;;12.63;30.74;97267.34;10468219;28;1966;-54
2023/02/11 11:34:55;;;;;;;;;;;;;;;12.64;30.76;97274.16;10460087;28;2078;-53
2023/02/11 11:40:01;;;;;;;;;;;;;;;12.63;30.73;97256.94;10458299;28;1998;-50
2023/02/11 11:45:03;;;;;;;;;;;;;;;12.64;30.89;97261.97;10462188;28;2121;-49
2023/02/11 11:50:13;;;;;;;;;;;;;;;12.65;30.75;97266.16;10458456;28;2020;-51
2023/02/11 11:55:19;;;;;;;;;;;;;;;12.66;30.73;97272.97;10451468;28;1978;-52
2023/02/11 12:00:38;;;;;;;;;;;;;;;12.67;30.79;97273.78;10457020;28;1954;-51
2023/02/11 12:05:44;;;;;;;;;;;;;;;12.68;30.84;97270.19;10453440;28;1985;-52
2023/02/11 12:10:50;;;;;;;;;;;;;;;12.67;30.88;97252.97;10466132;28;1954;-52
2023/02/11 12:16:20;;;;;;;;;;;;;;;12.66;30.97;97252.16;10456663;28;1914;-53
2023/02/11 12:21:28;;;;;;;;;;;;;;;12.64;30.80;97259.34;10421974;28;2032;-53
2023/02/11 12:26:35;;;;;;;;;;;;;;;12.65;30.92;97266.16;10407129;28;2113;-52
2023/02/11 12:31:35;;;;;;;;;;;;;;;12.65;30.95;97250.53;10413324;28;2010;-50
2023/02/11 12:36:40;;;;;;;;;;;;;;;12.65;30.77;97240.13;10425822;28;1915;-50
2023/02/11 12:47:18;;;;;;;;;;;;;;;12.64;30.88;97232.53;10418124;28;2109;-48
2023/02/11 12:52:31;;;;;;;;;;;;;;;12.65;30.98;97234.94;10417197;28;2062;-51
2023/02/11 12:57:31;;;;;;;;;;;;;;;12.65;30.75;97227.13;10418010;28;1979;-51
2023/02/11 13:02:31;;;;;;;;;;;;;;;12.65;30.99;97228.94;10431319;28;2073;-51
2023/02/11 13:07:33;;;;;;;;;;;;;;;12.64;30.88;97212.53;10430907;28;1955;-52
2023/02/11 13:17:57;;;;;;;;;;;;;;;12.70;31.08;97210.97;10420012;28;1946;-54
2023/02/11 13:23:10;;;;;;;;;;;;;;;12.77;31.03;97194.44;10420580;28;1922;-49
2023/02/11 13:28:22;;;;;;;;;;;;;;;12.93;31.09;97193.31;10436152;28;2012;-52
2023/02/11 13:33:35;;;;;;;;;;;;;;;13.16;30.75;97183.50;10403263;28;2021;-50
2023/02/11 13:38:35;;;;;;;;;;;;;;;13.32;30.66;97180.56;10407166;28;1963;-54
2023/02/11 13:43:36;;;;;;;;;;;;;;;13.25;30.83;97179.72;10404333;28;2188;-49
2023/02/11 13:48:44;;;;;;;;;;;;;;;13.20;30.60;97181.31;10418225;28;1997;-54
2023/02/11 13:53:48;;;;;;;;;;;;;;;13.17;30.57;97192.91;10435501;28;2068;-52
2023/02/11 13:58:49;;;;;;;;;;;;;;;13.13;30.88;97185.69;10424674;28;1966;-53
2023/02/11 14:09:33;;;;;;;;;;;;;;;13.07;31.11;97187.22;10427583;28;2057;-56
2023/02/11 14:14:34;;;;;;;;;;;;;;;13.04;31.43;97191.00;10423021;28;1974;-54
2023/02/11 14:19:38;;;;;;;;;;;;;;;13.04;31.27;97187.63;10433782;28;1994;-55
2023/02/11 14:24:51;;;;;;;;;;;;;;;12.99;31.34;97182.16;10421509;28;2143;-52
2023/02/11 14:30:03;;;;;;;;;;;;;;;12.95;31.22;97197.34;10427180;28;1970;-54
2023/02/11 14:35:22;;;;;;;;;;;;;;;12.93;31.30;97198.53;10402662;28;1994;-51
2023/02/11 14:40:25;;;;;;;;;;;;;;;12.90;31.17;97199.72;10417532;28;2106;-53
2023/02/11 14:45:26;;;;;;;;;;;;;;;12.87;31.13;97189.69;10425149;28;2068;-51
2023/02/11 14:50:27;;;;;;;;;;;;;;;12.85;31.25;97194.28;10390525;28;1949;-53
2023/02/11 14:55:28;;;;;;;;;;;;;;;12.83;31.29;97193.66;10426339;28;2147;-52
2023/02/11 15:00:29;;;;;;;;;;;;;;;12.83;31.26;97200.66;10407979;28;1978;-52
2023/02/11 15:05:29;;;;;;;;;;;;;;;12.81;31.11;97203.47;10418495;28;2053;-50
2023/02/11 15:10:29;;;;;;;;;;;;;;;12.80;31.29;97203.63;10418033;28;2124;-55
2023/02/11 15:15:30;;;;;;;;;;;;;;;12.77;31.31;97204.84;10425263;28;2101;-52
2023/02/11 15:20:30;;;;;;;;;;;;;;;12.77;31.40;97206.63;10426883;28;1986;-54
2023/02/11 15:25:31;;;;;;;;;;;;;;;12.77;31.30;97207.44;10418868;28;2006;-52
2023/02/11 15:30:32;;;;;;;;;;;;;;;12.76;31.40;97215.41;10410201;28;2165;-51
2023/02/11 15:35:36;;;;;;;;;;;;;;;12.75;31.23;97214.63;10423934;28;2022;-55
2023/02/11 15:40:37;;;;;;;;;;;;;;;12.75;31.30;97219.03;10427888;28;2010;-52
2023/02/11 15:45:37;;;;;;;;;;;;;;;12.74;31.31;97225.19;10410148;28;2108;-52
2023/02/11 15:50:39;;;;;;;;;;;;;;;12.73;31.13;97224.41;10411738;28;1958;-53
2023/02/11 15:55:39;;;;;;;;;;;;;;;12.72;31.13;97225.41;10418409;28;1923;-53
2023/02/11 16:00:47;;;;;;;;;;;;;;;12.72;31.21;97235.81;10400346;28;2085;-54
2023/02/11 16:05:47;;;;;;;;;;;;;;;12.72;31.13;97241.00;10417177;28;2092;-52
2023/02/11 16:10:58;;;;;;;;;;;;;;;12.72;31.16;97235.00;10418030;28;1946;-53
2023/02/11 16:16:02;;;;;;;;;;;;;;;12.70;31.16;97232.59;10411557;28;2101;-52
2023/02/11 16:21:03;;;;;;;;;;;;;;;12.70;31.08;97243.00;10416066;28;2076;-51
2023/02/11 16:26:07;;;;;;;;;;;;;;;12.68;31.28;97255.38;10412344;28;2061;-53
2023/02/11 16:31:08;;;;;;;;;;;;;;;12.70;31.08;97263.81;10420254;28;2076;-52
2023/02/11 16:36:12;;;;;;;;;;;;;;;12.70;31.10;97257.78;10407294;28;2104;-54
2023/02/11 16:41:13;;;;;;;;;;;;;;;12.69;30.97;97258.81;10420782;28;1978;-53
2023/02/11 16:46:13;;;;;;;;;;;;;;;12.68;31.06;97260.59;10407810;28;1918;-53
2023/02/11 16:51:14;;;;;;;;;;;;;;;12.69;31.02;97280.44;10407537;28;2026;-54
2023/02/11 16:56:15;;;;;;;;;;;;;;;12.69;31.02;97290.03;10410595;28;2059;-49
2023/02/11 17:01:16;;;;;;;;;;;;;;;12.69;30.96;97287.41;10421376;28;2112;-53
2023/02/11 17:06:16;;;;;;;;;;;;;;;12.69;31.03;97292.63;10415011;28;1947;-54
2023/02/11 17:11:18;;;;;;;;;;;;;;;12.67;31.18;97298.03;10419113;28;2046;-50
2023/02/11 17:16:19;;;;;;;;;;;;;;;12.69;30.96;97303.03;10412581;28;1974;-50
2023/02/11 17:21:19;;;;;;;;;;;;;;;12.69;31.15;97321.25;10427239;28;1970;-49
2023/02/11 17:26:19;;;;;;;;;;;;;;;12.67;31.22;97331.84;10423424;28;1958;-52
2023/02/11 17:31:20;;;;;;;;;;;;;;;12.68;31.17;97328.22;10426234;28;2107;-51
2023/02/11 17:36:20;;;;;;;;;;;;;;;12.67;30.97;97333.63;10428072;28;1969;-50
2023/02/11 17:41:20;;;;;;;;;;;;;;;12.67;31.08;97342.25;10419711;28;1986;-54
2023/02/11 17:46:20;;;;;;;;;;;;;;;12.68;31.03;97343.03;10412845;28;2100;-54
2023/02/11 17:51:21;;;;;;;;;;;;;;;12.68;31.00;97348.22;10427793;28;1930;-55
2023/02/11 17:56:21;;;;;;;;;;;;;;;12.66;31.02;97345.81;10421471;28;2132;-53
2023/02/11 18:01:21;;;;;;;;;;;;;;;12.67;30.97;97357.84;10425732;28;2089;-54
2023/02/11 18:06:22;;;;;;;;;;;;;;;12.66;31.02;97358.81;10419896;28;1959;-50
2023/02/11 18:11:23;;;;;;;;;;;;;;;12.67;30.99;97357.84;10427346;28;2130;-53
2023/02/11 18:16:26;;;;;;;;;;;;;;;12.67;31.10;97368.25;10424471;28;2116;-54
2023/02/11 18:21:26;;;;;;;;;;;;;;;12.66;30.98;97371.84;10427959;28;2101;-54
2023/02/11 18:26:27;;;;;;;;;;;;;;;12.66;31.03;97368.44;10413831;28;2026;-55
2023/02/11 18:31:27;;;;;;;;;;;;;;;12.65;31.17;97365.00;10431202;28;1965;-50
2023/02/11 18:36:27;;;;;;;;;;;;;;;12.67;31.00;97370.06;10422377;28;1989;-50
2023/02/11 18:41:27;;;;;;;;;;;;;;;12.66;30.94;97360.63;10436614;28;1947;-53
2023/02/11 18:46:28;;;;;;;;;;;;;;;12.66;31.02;97365.81;10424352;28;1950;-52
2023/02/11 18:51:31;;;;;;;;;;;;;;;12.66;31.07;97360.63;10433053;28;1974;-54
2023/02/11 18:56:31;;;;;;;;;;;;;;;12.65;31.16;97370.22;10439276;28;1504;-53
2023/02/11 19:01:33;;;;;;;;;;;;;;;12.66;31.12;97371.84;10443793;28;1914;-54
2023/02/11 19:06:34;;;;;;;;;;;;;;;12.65;30.98;97367.59;10420372;28;1962;-50
2023/02/11 19:11:46;;;;;;;;;;;;;;;12.64;31.19;97370.41;10404913;28;1910;-53
2023/02/11 19:16:48;;;;;;;;;;;;;;;12.65;31.23;97365.00;10424621;28;2089;-50
2023/02/11 19:21:49;;;;;;;;;;;;;;;12.65;31.07;97361.63;10404900;28;1981;-52
2023/02/11 19:26:49;;;;;;;;;;;;;;;12.66;31.11;97365.81;10419489;28;1973;-54
2023/02/11 19:31:50;;;;;;;;;;;;;;;12.65;31.21;97374.63;10396067;28;1938;-51
2023/02/11 19:36:50;;;;;;;;;;;;;;;12.63;31.24;97369.59;10427281;28;1978;-53
2023/02/11 19:41:50;;;;;;;;;;;;;;;12.64;31.06;97362.59;10419990;28;2108;-53
2023/02/11 19:46:52;;;;;;;;;;;;;;;12.63;31.12;97364.38;10412583;28;2029;-54
2023/02/11 19:51:52;;;;;;;;;;;;;;;12.64;30.97;97363.41;10422129;28;1922;-52
2023/02/11 19:56:53;;;;;;;;;;;;;;;12.64;30.95;97366.00;10420265;28;2104;-53
2023/02/11 20:01:53;;;;;;;;;;;;;;;12.64;30.99;97363.41;10419899;28;1910;-51
2023/02/11 20:06:53;;;;;;;;;;;;;;;12.64;31.04;97362.59;10431423;28;1387;-50
2023/02/11 20:11:54;;;;;;;;;;;;;;;12.64;31.22;97371.22;10440196;28;1450;-53
2023/02/11 20:16:54;;;;;;;;;;;;;;;12.64;31.00;97368.63;10408108;28;1931;-51
2023/02/11 20:21:54;;;;;;;;;;;;;;;12.63;31.20;97364.38;10421411;28;2065;-49
2023/02/11 20:26:54;;;;;;;;;;;;;;;12.64;31.01;97392.03;10422662;28;2001;-48
2023/02/11 20:31:55;;;;;;;;;;;;;;;12.63;31.06;97387.81;10432347;28;2013;-55
2023/02/11 20:36:55;;;;;;;;;;;;;;;12.64;31.16;97397.22;10423162;28;2045;-51
2023/02/11 20:41:56;;;;;;;;;;;;;;;12.63;31.15;97402.63;10412461;28;2021;-53
2023/02/11 20:46:56;;;;;;;;;;;;;;;12.63;31.00;97400.81;10417156;28;1969;-52
2023/02/11 20:51:57;;;;;;;;;;;;;;;12.63;31.06;97398.22;10429168;28;2062;-54
2023/02/11 20:56:58;;;;;;;;;;;;;;;12.63;31.18;97398.22;10413638;28;1957;-51
2023/02/11 21:01:58;;;;;;;;;;;;;;;12.62;31.13;97394.00;10424182;28;1971;-52
2023/02/11 21:06:59;;;;;;;;;;;;;;;12.63;31.21;97407.81;10426785;28;1966;-54
2023/02/11 21:11:59;;;;;;;;;;;;;;;12.63;31.17;97398.22;10419626;28;1985;-51
2023/02/11 21:16:59;;;;;;;;;;;;;;;12.63;31.13;97406.00;10409613;28;1965;-50
2023/02/11 21:22:00;;;;;;;;;;;;;;;12.62;31.13;97414.00;10425718;28;1973;-52
2023/02/11 21:27:01;;;;;;;;;;;;;;;12.63;31.23;97413.81;10419984;28;2015;-51
2023/02/11 21:32:02;;;;;;;;;;;;;;;12.63;31.16;97413.03;10419897;28;1958;-50
2023/02/11 21:37:02;;;;;;;;;;;;;;;12.63;31.09;97406.00;10438885;28;2126;-54
2023/02/11 21:42:03;;;;;;;;;;;;;;;12.64;31.14;97404.22;10424112;28;2048;-54
2023/02/11 21:47:03;;;;;;;;;;;;;;;12.63;31.26;97395.59;10422330;28;1969;-50
2023/02/11 21:52:03;;;;;;;;;;;;;;;12.61;31.28;97400.19;10417160;28;1965;-52
2023/02/11 21:57:04;;;;;;;;;;;;;;;12.63;31.09;97393.00;10420817;28;2037;-52
2023/02/11 22:02:04;;;;;;;;;;;;;;;12.62;31.21;97391.41;10435216;28;1965;-50
2023/02/11 22:07:04;;;;;;;;;;;;;;;12.63;31.10;97398.22;10432215;28;1939;-52
2023/02/11 22:12:07;;;;;;;;;;;;;;;12.62;31.34;97390.59;10427051;28;1390;-54
2023/02/11 22:17:07;;;;;;;;;;;;;;;12.63;31.26;97384.41;10426420;28;1469;-54
2023/02/11 22:22:08;;;;;;;;;;;;;;;12.62;31.31;97391.41;10418420;28;1957;-51
2023/02/11 22:27:08;;;;;;;;;;;;;;;12.62;31.23;97391.41;10423353;28;1949;-51
2023/02/11 22:32:08;;;;;;;;;;;;;;;12.63;31.26;97387.81;10435392;28;2025;-51
2023/02/11 22:37:09;;;;;;;;;;;;;;;12.62;31.23;97401.81;10414580;28;1926;-49
2023/02/11 22:42:09;;;;;;;;;;;;;;;12.62;31.15;97407.00;10421477;28;1914;-50
2023/02/11 22:47:09;;;;;;;;;;;;;;;12.62;31.22;97414.81;10427433;28;1996;-51
2023/02/11 22:52:09;;;;;;;;;;;;;;;12.61;31.16;97405.38;10420545;28;2148;-51
2023/02/11 22:57:10;;;;;;;;;;;;;;;12.62;31.26;97417.41;10423384;28;2068;-52
2023/02/11 23:02:10;;;;;;;;;;;;;;;12.62;31.13;97420.03;10420980;28;2052;-53
2023/02/11 23:07:11;;;;;;;;;;;;;;;12.62;31.16;97427.81;10423323;28;1970;-53
2023/02/11 23:12:11;;;;;;;;;;;;;;;12.63;31.05;97441.66;10430240;28;1946;-52
2023/02/11 23:17:11;;;;;;;;;;;;;;;12.61;31.28;97435.81;10433804;28;2085;-53
2023/02/11 23:22:11;;;;;;;;;;;;;;;12.62;31.15;97440.84;10424684;28;2037;-55
2023/02/11 23:27:12;;;;;;;;;;;;;;;12.63;31.32;97432.03;10428372;28;1957;-49
2023/02/11 23:32:12;;;;;;;;;;;;;;;12.62;31.18;97443.44;10437038;28;1465;-53
2023/02/11 23:37:12;;;;;;;;;;;;;;;12.62;31.13;97442.63;10439858;28;1447;-48
2023/02/11 23:42:13;;;;;;;;;;;;;;;12.62;31.32;97443.44;10440556;28;1969;-55
2023/02/11 23:47:13;;;;;;;;;;;;;;;12.62;31.30;97446.03;10427932;28;1439;-53
2023/02/11 23:52:13;;;;;;;;;;;;;;;12.62;31.14;97459.03;10436211;28;1239;-51
2023/02/11 23:57:14;;;;;;;;;;;;;;;12.61;31.39;97465.22;10428424;28;1628;-51
